Terminal Aerodrome Forecast
Issued by NWS

Home | Current Version | Previous Version | Text Only | Print | Product List | Glossary On
Versions: 1 2 3 4 5 6 7 8 9 10 11 12 13 14 15 16 17 18 19 20 21 22 23 24 25 26 27 28 29 30 31 32 33 34 35 36 37 38
000
FTUS43 KGRB 270520
TAFRHI
TAF
KRHI 270520Z 2706/2806 21004KT 4SM BR SCT040 SCT080
      TEMPO 2708/2712 1SM BR BKN002
     FM271300 23005KT P6SM SCT015 SCT040
     FM271600 25008KT P6SM SCT050 BKN090
     FM272200 26004KT P6SM BKN080=

USA.gov is the U.S. government's official web portal to all federal, state and local government web resources and services.